Location Isle ofWight, ISLE OF WIGHT, UK

ob UISISLE1 160445Z AUTO 34002G04KT CLR 01/00 A3000 RMK SLPNO 

2017.12.16 0445 UTC
Wind from the NNW (339 degrees) at 2.6 MPH (2 KT) gusting to 4.1 MPH (4 KT)
Visibility    Mile(s)
Sky Conditions  clear
Temperature 34.3 F (1 C)
Dew Point 31.1 F (-0 C)
Relative Humidity 88%
Pressure   30.006 in. Hg (1016 hPa)
Rain  0.00 in.
Daily Rain 0.000 in.

Station Name  Isle of Wight Weather
Longitude, Latitude  -1.271, 50.72
Elevation 45
Station URL http://www.isleofwightweather.co.uk
Software Type WeatherDisplay:10.37R